sensor_id;sensor_type;location;lat;lon;timestamp;P1;P2;P0
42410;PMS5003;28056;51.112;0.984;2023-02-22T00:00:46;47;42;
42410;PMS5003;28056;51.112;0.984;2023-02-22T00:03:14;49;45;
42410;PMS5003;28056;51.112;0.984;2023-02-22T00:05:45;53;45;
42410;PMS5003;28056;51.112;0.984;2023-02-22T00:08:12;57;44;
42410;PMS5003;28056;51.112;0.984;2023-02-22T00:10:42;45;34;
42410;PMS5003;28056;51.112;0.984;2023-02-22T00:13:11;48;44;
42410;PMS5003;28056;51.112;0.984;2023-02-22T00:15:39;61;48;
42410;PMS5003;28056;51.112;0.984;2023-02-22T00:18:07;50;43;
42410;PMS5003;28056;51.112;0.984;2023-02-22T00:20:38;52;47;
42410;PMS5003;28056;51.112;0.984;2023-02-22T00:23:07;55;46;
42410;PMS5003;28056;51.112;0.984;2023-02-22T00:25:38;34;30;
42410;PMS5003;28056;51.112;0.984;2023-02-22T00:28:06;45;38;
42410;PMS5003;28056;51.112;0.984;2023-02-22T00:30:33;53;41;
42410;PMS5003;28056;51.112;0.984;2023-02-22T00:33:00;59;49;
42410;PMS5003;28056;51.112;0.984;2023-02-22T00:35:28;49;44;
42410;PMS5003;28056;51.112;0.984;2023-02-22T00:37:58;46;44;
42410;PMS5003;28056;51.112;0.984;2023-02-22T00:40:27;49;45;
42410;PMS5003;28056;51.112;0.984;2023-02-22T00:42:56;49;38;
42410;PMS5003;28056;51.112;0.984;2023-02-22T00:45:24;57;48;
42410;PMS5003;28056;51.112;0.984;2023-02-22T00:47:52;53;46;
42410;PMS5003;28056;51.112;0.984;2023-02-22T00:50:20;53;44;
42410;PMS5003;28056;51.112;0.984;2023-02-22T00:52:50;53;46;
42410;PMS5003;28056;51.112;0.984;2023-02-22T00:55:18;60;50;
42410;PMS5003;28056;51.112;0.984;2023-02-22T00:57:48;53;45;
42410;PMS5003;28056;51.112;0.984;2023-02-22T01:00:16;50;44;
42410;PMS5003;28056;51.112;0.984;2023-02-22T01:04:47;62;54;
42410;PMS5003;28056;51.112;0.984;2023-02-22T01:07:15;50;49;
42410;PMS5003;28056;51.112;0.984;2023-02-22T01:09:42;53;42;
42410;PMS5003;28056;51.112;0.984;2023-02-22T01:12:10;53;50;
42410;PMS5003;28056;51.112;0.984;2023-02-22T01:14:38;62;53;
42410;PMS5003;28056;51.112;0.984;2023-02-22T01:17:06;50;46;
42410;PMS5003;28056;51.112;0.984;2023-02-22T01:19:33;47;42;
42410;PMS5003;28056;51.112;0.984;2023-02-22T01:22:00;55;47;
42410;PMS5003;28056;51.112;0.984;2023-02-22T01:24:28;53;46;
42410;PMS5003;28056;51.112;0.984;2023-02-22T01:26:55;54;50;
42410;PMS5003;28056;51.112;0.984;2023-02-22T01:29:23;51;47;
42410;PMS5003;28056;51.112;0.984;2023-02-22T01:31:51;54;46;
42410;PMS5003;28056;51.112;0.984;2023-02-22T01:34:21;55;45;
42410;PMS5003;28056;51.112;0.984;2023-02-22T01:36:50;53;50;
42410;PMS5003;28056;51.112;0.984;2023-02-22T01:39:17;64;55;
42410;PMS5003;28056;51.112;0.984;2023-02-22T01:41:45;50;47;
42410;PMS5003;28056;51.112;0.984;2023-02-22T01:44:20;57;50;
42410;PMS5003;28056;51.112;0.984;2023-02-22T01:46:53;61;47;
42410;PMS5003;28056;51.112;0.984;2023-02-22T01:49:21;52;45;
42410;PMS5003;28056;51.112;0.984;2023-02-22T01:51:52;59;51;
42410;PMS5003;28056;51.112;0.984;2023-02-22T01:54:24;64;57;
42410;PMS5003;28056;51.112;0.984;2023-02-22T01:56:56;47;46;
42410;PMS5003;28056;51.112;0.984;2023-02-22T01:59:28;56;46;
42410;PMS5003;28056;51.112;0.984;2023-02-22T02:01:58;62;50;
42410;PMS5003;28056;51.112;0.984;2023-02-22T02:04:27;62;56;
42410;PMS5003;28056;51.112;0.984;2023-02-22T02:06:56;66;57;
42410;PMS5003;28056;51.112;0.984;2023-02-22T02:09:30;65;59;
42410;PMS5003;28056;51.112;0.984;2023-02-22T02:12:01;48;45;
42410;PMS5003;28056;51.112;0.984;2023-02-22T02:14:30;62;48;
42410;PMS5003;28056;51.112;0.984;2023-02-22T02:16:58;55;49;
42410;PMS5003;28056;51.112;0.984;2023-02-22T02:19:30;63;57;
42410;PMS5003;28056;51.112;0.984;2023-02-22T02:22:11;62;49;
42410;PMS5003;28056;51.112;0.984;2023-02-22T02:24:56;66;57;
42410;PMS5003;28056;51.112;0.984;2023-02-22T02:27:13;68;58;
42410;PMS5003;28056;51.112;0.984;2023-02-22T02:32:01;59;53;
42410;PMS5003;28056;51.112;0.984;2023-02-22T02:34:44;55;53;
42410;PMS5003;28056;51.112;0.984;2023-02-22T02:37:18;52;44;
42410;PMS5003;28056;51.112;0.984;2023-02-22T02:39:52;53;49;
42410;PMS5003;28056;51.112;0.984;2023-02-22T02:42:26;66;55;
42410;PMS5003;28056;51.112;0.984;2023-02-22T02:45:01;57;48;
42410;PMS5003;28056;51.112;0.984;2023-02-22T02:47:34;54;49;
42410;PMS5003;28056;51.112;0.984;2023-02-22T02:50:07;61;56;
42410;PMS5003;28056;51.112;0.984;2023-02-22T02:52:40;55;49;
42410;PMS5003;28056;51.112;0.984;2023-02-22T02:55:09;56;43;
42410;PMS5003;28056;51.112;0.984;2023-02-22T02:57:38;59;45;
42410;PMS5003;28056;51.112;0.984;2023-02-22T03:00:12;53;48;
42410;PMS5003;28056;51.112;0.984;2023-02-22T03:02:50;58;56;
42410;PMS5003;28056;51.112;0.984;2023-02-22T03:05:34;70;58;
42410;PMS5003;28056;51.112;0.984;2023-02-22T03:08:15;68;53;
42410;PMS5003;28056;51.112;0.984;2023-02-22T03:10:52;58;49;
42410;PMS5003;28056;51.112;0.984;2023-02-22T03:13:28;58;53;
42410;PMS5003;28056;51.112;0.984;2023-02-22T03:16:02;58;52;
42410;PMS5003;28056;51.112;0.984;2023-02-22T03:18:41;56;52;
42410;PMS5003;28056;51.112;0.984;2023-02-22T03:21:17;62;56;
42410;PMS5003;28056;51.112;0.984;2023-02-22T03:23:57;65;53;
42410;PMS5003;28056;51.112;0.984;2023-02-22T03:26:33;55;50;
42410;PMS5003;28056;51.112;0.984;2023-02-22T03:29:06;54;52;
42410;PMS5003;28056;51.112;0.984;2023-02-22T03:31:39;64;54;
42410;PMS5003;28056;51.112;0.984;2023-02-22T03:34:12;63;55;
42410;PMS5003;28056;51.112;0.984;2023-02-22T03:36:43;50;48;
42410;PMS5003;28056;51.112;0.984;2023-02-22T03:39:15;58;55;
42410;PMS5003;28056;51.112;0.984;2023-02-22T03:41:46;59;50;
42410;PMS5003;28056;51.112;0.984;2023-02-22T03:44:17;55;49;
42410;PMS5003;28056;51.112;0.984;2023-02-22T03:46:52;54;50;
42410;PMS5003;28056;51.112;0.984;2023-02-22T03:49:23;53;49;
42410;PMS5003;28056;51.112;0.984;2023-02-22T03:51:58;54;50;
42410;PMS5003;28056;51.112;0.984;2023-02-22T03:54:27;59;54;
42410;PMS5003;28056;51.112;0.984;2023-02-22T03:56:55;53;49;
42410;PMS5003;28056;51.112;0.984;2023-02-22T03:59:30;73;57;
42410;PMS5003;28056;51.112;0.984;2023-02-22T04:01:58;54;48;
42410;PMS5003;28056;51.112;0.984;2023-02-22T04:04:25;55;47;
42410;PMS5003;28056;51.112;0.984;2023-02-22T04:06:52;54;46;
42410;PMS5003;28056;51.112;0.984;2023-02-22T04:09:19;57;49;
42410;PMS5003;28056;51.112;0.984;2023-02-22T04:11:47;55;53;
42410;PMS5003;28056;51.112;0.984;2023-02-22T04:14:15;50;45;
42410;PMS5003;28056;51.112;0.984;2023-02-22T04:16:43;54;49;
42410;PMS5003;28056;51.112;0.984;2023-02-22T04:19:10;50;44;
42410;PMS5003;28056;51.112;0.984;2023-02-22T04:21:38;50;49;
42410;PMS5003;28056;51.112;0.984;2023-02-22T04:24:06;58;45;
42410;PMS5003;28056;51.112;0.984;2023-02-22T04:26:34;59;53;
42410;PMS5003;28056;51.112;0.984;2023-02-22T04:29:01;53;46;
42410;PMS5003;28056;51.112;0.984;2023-02-22T04:31:29;46;43;
42410;PMS5003;28056;51.112;0.984;2023-02-22T04:33:57;61;49;
42410;PMS5003;28056;51.112;0.984;2023-02-22T04:36:25;66;50;
42410;PMS5003;28056;51.112;0.984;2023-02-22T04:38:52;55;49;
42410;PMS5003;28056;51.112;0.984;2023-02-22T04:41:20;54;49;
42410;PMS5003;28056;51.112;0.984;2023-02-22T04:43:48;60;54;
42410;PMS5003;28056;51.112;0.984;2023-02-22T04:46:15;62;55;
42410;PMS5003;28056;51.112;0.984;2023-02-22T04:48:43;57;53;
42410;PMS5003;28056;51.112;0.984;2023-02-22T04:51:10;58;49;
42410;PMS5003;28056;51.112;0.984;2023-02-22T04:53:38;55;49;
42410;PMS5003;28056;51.112;0.984;2023-02-22T04:56:05;54;46;
42410;PMS5003;28056;51.112;0.984;2023-02-22T04:58:32;58;49;
42410;PMS5003;28056;51.112;0.984;2023-02-22T05:01:00;59;54;
42410;PMS5003;28056;51.112;0.984;2023-02-22T05:03:27;59;53;
42410;PMS5003;28056;51.112;0.984;2023-02-22T05:05:55;57;52;
42410;PMS5003;28056;51.112;0.984;2023-02-22T05:08:22;59;50;
42410;PMS5003;28056;51.112;0.984;2023-02-22T05:10:50;60;54;
42410;PMS5003;28056;51.112;0.984;2023-02-22T05:13:17;53;50;
42410;PMS5003;28056;51.112;0.984;2023-02-22T05:15:44;60;53;
42410;PMS5003;28056;51.112;0.984;2023-02-22T05:18:12;67;55;
42410;PMS5003;28056;51.112;0.984;2023-02-22T05:20:40;58;53;
42410;PMS5003;28056;51.112;0.984;2023-02-22T05:23:08;70;55;
42410;PMS5003;28056;51.112;0.984;2023-02-22T05:25:35;59;52;
42410;PMS5003;28056;51.112;0.984;2023-02-22T05:28:04;57;51;
42410;PMS5003;28056;51.112;0.984;2023-02-22T05:30:36;60;55;
42410;PMS5003;28056;51.112;0.984;2023-02-22T05:33:04;45;45;
42410;PMS5003;28056;51.112;0.984;2023-02-22T05:35:31;48;45;
42410;PMS5003;28056;51.112;0.984;2023-02-22T05:37:58;56;52;
42410;PMS5003;28056;51.112;0.984;2023-02-22T05:40:26;56;50;
42410;PMS5003;28056;51.112;0.984;2023-02-22T05:42:55;50;44;
42410;PMS5003;28056;51.112;0.984;2023-02-22T05:45:24;59;51;
42410;PMS5003;28056;51.112;0.984;2023-02-22T05:47:53;58;46;
42410;PMS5003;28056;51.112;0.984;2023-02-22T05:50:21;51;47;
42410;PMS5003;28056;51.112;0.984;2023-02-22T05:52:49;57;49;
42410;PMS5003;28056;51.112;0.984;2023-02-22T05:55:18;60;52;
42410;PMS5003;28056;51.112;0.984;2023-02-22T05:57:47;61;55;
42410;PMS5003;28056;51.112;0.984;2023-02-22T06:00:16;58;51;
42410;PMS5003;28056;51.112;0.984;2023-02-22T06:02:45;61;55;
42410;PMS5003;28056;51.112;0.984;2023-02-22T06:05:13;79;60;
42410;PMS5003;28056;51.112;0.984;2023-02-22T06:07:40;56;52;
42410;PMS5003;28056;51.112;0.984;2023-02-22T06:10:07;47;42;
42410;PMS5003;28056;51.112;0.984;2023-02-22T06:12:35;62;55;
42410;PMS5003;28056;51.112;0.984;2023-02-22T06:15:02;63;54;
42410;PMS5003;28056;51.112;0.984;2023-02-22T06:17:29;52;47;
42410;PMS5003;28056;51.112;0.984;2023-02-22T06:19:56;65;61;
42410;PMS5003;28056;51.112;0.984;2023-02-22T06:22:24;56;50;
42410;PMS5003;28056;51.112;0.984;2023-02-22T06:24:51;57;56;
42410;PMS5003;28056;51.112;0.984;2023-02-22T06:27:19;72;61;
42410;PMS5003;28056;51.112;0.984;2023-02-22T06:29:47;49;46;
42410;PMS5003;28056;51.112;0.984;2023-02-22T06:32:14;59;52;
42410;PMS5003;28056;51.112;0.984;2023-02-22T06:34:41;57;52;
42410;PMS5003;28056;51.112;0.984;2023-02-22T06:37:09;59;47;
42410;PMS5003;28056;51.112;0.984;2023-02-22T06:39:36;59;55;
42410;PMS5003;28056;51.112;0.984;2023-02-22T06:42:04;69;57;
42410;PMS5003;28056;51.112;0.984;2023-02-22T06:44:32;66;60;
42410;PMS5003;28056;51.112;0.984;2023-02-22T06:46:59;75;58;
42410;PMS5003;28056;51.112;0.984;2023-02-22T06:49:27;67;55;
42410;PMS5003;28056;51.112;0.984;2023-02-22T06:51:54;63;53;
42410;PMS5003;28056;51.112;0.984;2023-02-22T06:54:21;60;55;
42410;PMS5003;28056;51.112;0.984;2023-02-22T06:56:49;80;60;
42410;PMS5003;28056;51.112;0.984;2023-02-22T06:59:17;69;64;
42410;PMS5003;28056;51.112;0.984;2023-02-22T07:01:45;77;64;
42410;PMS5003;28056;51.112;0.984;2023-02-22T07:04:13;68;54;
42410;PMS5003;28056;51.112;0.984;2023-02-22T07:06:43;77;68;
42410;PMS5003;28056;51.112;0.984;2023-02-22T07:09:10;85;72;
42410;PMS5003;28056;51.112;0.984;2023-02-22T07:11:38;73;65;
42410;PMS5003;28056;51.112;0.984;2023-02-22T07:14:05;77;64;
42410;PMS5003;28056;51.112;0.984;2023-02-22T07:16:33;85;78;
42410;PMS5003;28056;51.112;0.984;2023-02-22T07:19:00;64;59;
42410;PMS5003;28056;51.112;0.984;2023-02-22T07:21:28;67;62;
42410;PMS5003;28056;51.112;0.984;2023-02-22T07:23:56;77;66;
42410;PMS5003;28056;51.112;0.984;2023-02-22T07:26:24;65;63;
42410;PMS5003;28056;51.112;0.984;2023-02-22T07:28:52;89;63;
42410;PMS5003;28056;51.112;0.984;2023-02-22T07:31:19;78;66;
42410;PMS5003;28056;51.112;0.984;2023-02-22T07:33:47;84;74;
42410;PMS5003;28056;51.112;0.984;2023-02-22T07:36:14;84;71;
42410;PMS5003;28056;51.112;0.984;2023-02-22T07:38:42;78;59;
42410;PMS5003;28056;51.112;0.984;2023-02-22T07:41:09;83;61;
42410;PMS5003;28056;51.112;0.984;2023-02-22T07:43:37;86;66;
42410;PMS5003;28056;51.112;0.984;2023-02-22T07:46:05;81;62;
42410;PMS5003;28056;51.112;0.984;2023-02-22T07:48:33;84;68;
42410;PMS5003;28056;51.112;0.984;2023-02-22T07:51:00;74;64;
42410;PMS5003;28056;51.112;0.984;2023-02-22T07:53:29;84;71;
42410;PMS5003;28056;51.112;0.984;2023-02-22T07:55:57;78;65;
42410;PMS5003;28056;51.112;0.984;2023-02-22T07:58:26;86;73;
42410;PMS5003;28056;51.112;0.984;2023-02-22T08:00:55;85;62;
42410;PMS5003;28056;51.112;0.984;2023-02-22T08:03:24;89;73;
42410;PMS5003;28056;51.112;0.984;2023-02-22T08:05:53;82;62;
42410;PMS5003;28056;51.112;0.984;2023-02-22T08:08:22;93;78;
42410;PMS5003;28056;51.112;0.984;2023-02-22T08:10:50;86;65;
42410;PMS5003;28056;51.112;0.984;2023-02-22T08:13:18;89;64;
42410;PMS5003;28056;51.112;0.984;2023-02-22T08:15:47;81;66;
42410;PMS5003;28056;51.112;0.984;2023-02-22T08:18:17;78;61;
42410;PMS5003;28056;51.112;0.984;2023-02-22T08:20:46;72;60;
42410;PMS5003;28056;51.112;0.984;2023-02-22T08:23:16;70;61;
42410;PMS5003;28056;51.112;0.984;2023-02-22T08:25:45;63;54;
42410;PMS5003;28056;51.112;0.984;2023-02-22T08:28:13;73;63;
42410;PMS5003;28056;51.112;0.984;2023-02-22T08:30:42;77;65;
42410;PMS5003;28056;51.112;0.984;2023-02-22T08:33:09;67;56;
42410;PMS5003;28056;51.112;0.984;2023-02-22T08:35:37;82;63;
42410;PMS5003;28056;51.112;0.984;2023-02-22T08:38:05;70;59;
42410;PMS5003;28056;51.112;0.984;2023-02-22T08:40:34;81;70;
42410;PMS5003;28056;51.112;0.984;2023-02-22T08:43:03;77;60;
42410;PMS5003;28056;51.112;0.984;2023-02-22T08:45:30;73;63;
42410;PMS5003;28056;51.112;0.984;2023-02-22T08:47:57;72;61;
42410;PMS5003;28056;51.112;0.984;2023-02-22T08:50:26;59;54;
42410;PMS5003;28056;51.112;0.984;2023-02-22T08:52:55;71;54;
42410;PMS5003;28056;51.112;0.984;2023-02-22T08:55:25;66;43;
42410;PMS5003;28056;51.112;0.984;2023-02-22T08:57:53;72;55;
42410;PMS5003;28056;51.112;0.984;2023-02-22T09:00:21;63;49;
42410;PMS5003;28056;51.112;0.984;2023-02-22T09:02:49;56;44;
42410;PMS5003;28056;51.112;0.984;2023-02-22T09:05:17;74;55;
42410;PMS5003;28056;51.112;0.984;2023-02-22T09:07:45;75;56;
42410;PMS5003;28056;51.112;0.984;2023-02-22T09:10:14;76;58;
42410;PMS5003;28056;51.112;0.984;2023-02-22T09:12:43;83;66;
42410;PMS5003;28056;51.112;0.984;2023-02-22T09:15:11;66;51;
42410;PMS5003;28056;51.112;0.984;2023-02-22T09:17:38;75;60;
42410;PMS5003;28056;51.112;0.984;2023-02-22T09:20:06;68;55;
42410;PMS5003;28056;51.112;0.984;2023-02-22T09:22:35;84;61;
42410;PMS5003;28056;51.112;0.984;2023-02-22T09:25:03;70;58;
42410;PMS5003;28056;51.112;0.984;2023-02-22T09:27:31;74;60;
42410;PMS5003;28056;51.112;0.984;2023-02-22T09:29:59;68;59;
42410;PMS5003;28056;51.112;0.984;2023-02-22T09:32:28;74;57;
42410;PMS5003;28056;51.112;0.984;2023-02-22T09:34:55;58;49;
42410;PMS5003;28056;51.112;0.984;2023-02-22T09:37:23;78;54;
42410;PMS5003;28056;51.112;0.984;2023-02-22T09:39:50;60;53;
42410;PMS5003;28056;51.112;0.984;2023-02-22T09:42:20;47;43;
42410;PMS5003;28056;51.112;0.984;2023-02-22T09:44:55;60;50;
42410;PMS5003;28056;51.112;0.984;2023-02-22T09:47:32;71;54;
42410;PMS5003;28056;51.112;0.984;2023-02-22T09:50:04;64;57;
42410;PMS5003;28056;51.112;0.984;2023-02-22T09:52:36;72;55;
42410;PMS5003;28056;51.112;0.984;2023-02-22T09:55:15;69;62;
42410;PMS5003;28056;51.112;0.984;2023-02-22T09:57:52;81;58;
42410;PMS5003;28056;51.112;0.984;2023-02-22T10:00:23;61;52;
42410;PMS5003;28056;51.112;0.984;2023-02-22T10:02:58;74;67;
42410;PMS5003;28056;51.112;0.984;2023-02-22T10:05:38;67;55;
42410;PMS5003;28056;51.112;0.984;2023-02-22T10:08:10;70;51;
42410;PMS5003;28056;51.112;0.984;2023-02-22T10:10:41;68;51;
42410;PMS5003;28056;51.112;0.984;2023-02-22T10:13:11;49;46;
42410;PMS5003;28056;51.112;0.984;2023-02-22T10:15:48;67;56;
42410;PMS5003;28056;51.112;0.984;2023-02-22T10:18:28;57;47;
42410;PMS5003;28056;51.112;0.984;2023-02-22T10:21:07;64;45;
42410;PMS5003;28056;51.112;0.984;2023-02-22T10:23:44;52;44;
42410;PMS5003;28056;51.112;0.984;2023-02-22T10:26:19;59;47;
42410;PMS5003;28056;51.112;0.984;2023-02-22T10:28:51;55;47;
42410;PMS5003;28056;51.112;0.984;2023-02-22T10:31:24;62;48;
42410;PMS5003;28056;51.112;0.984;2023-02-22T10:33:57;63;51;
42410;PMS5003;28056;51.112;0.984;2023-02-22T10:36:28;60;49;
42410;PMS5003;28056;51.112;0.984;2023-02-22T10:38:56;61;51;
42410;PMS5003;28056;51.112;0.984;2023-02-22T10:41:28;60;49;
42410;PMS5003;28056;51.112;0.984;2023-02-22T10:43:57;76;53;
42410;PMS5003;28056;51.112;0.984;2023-02-22T10:46:27;51;46;
42410;PMS5003;28056;51.112;0.984;2023-02-22T10:48:59;57;46;
42410;PMS5003;28056;51.112;0.984;2023-02-22T10:51:31;53;40;
42410;PMS5003;28056;51.112;0.984;2023-02-22T10:54:04;59;45;
42410;PMS5003;28056;51.112;0.984;2023-02-22T10:56:51;45;37;
42410;PMS5003;28056;51.112;0.984;2023-02-22T10:59:29;62;51;
42410;PMS5003;28056;51.112;0.984;2023-02-22T11:01:59;41;34;
42410;PMS5003;28056;51.112;0.984;2023-02-22T11:04:43;38;35;
42410;PMS5003;28056;51.112;0.984;2023-02-22T11:07:17;40;32;
42410;PMS5003;28056;51.112;0.984;2023-02-22T11:09:49;42;37;
42410;PMS5003;28056;51.112;0.984;2023-02-22T11:12:19;51;36;
42410;PMS5003;28056;51.112;0.984;2023-02-22T11:14:52;38;31;
42410;PMS5003;28056;51.112;0.984;2023-02-22T11:17:25;38;31;
42410;PMS5003;28056;51.112;0.984;2023-02-22T11:19:56;32;28;
42410;PMS5003;28056;51.112;0.984;2023-02-22T11:22:26;38;28;
42410;PMS5003;28056;51.112;0.984;2023-02-22T11:24:58;38;23;
42410;PMS5003;28056;51.112;0.984;2023-02-22T11:27:29;31;27;
42410;PMS5003;28056;51.112;0.984;2023-02-22T11:30:11;25;23;
42410;PMS5003;28056;51.112;0.984;2023-02-22T11:32:48;35;32;
42410;PMS5003;28056;51.112;0.984;2023-02-22T11:35:19;36;27;
42410;PMS5003;28056;51.112;0.984;2023-02-22T11:38:16;30;23;
42410;PMS5003;28056;51.112;0.984;2023-02-22T11:41:25;44;31;
42410;PMS5003;28056;51.112;0.984;2023-02-22T11:43:54;32;28;
42410;PMS5003;28056;51.112;0.984;2023-02-22T11:46:40;35;28;
42410;PMS5003;28056;51.112;0.984;2023-02-22T11:49:09;40;28;
42410;PMS5003;28056;51.112;0.984;2023-02-22T11:51:42;36;30;
42410;PMS5003;28056;51.112;0.984;2023-02-22T11:54:20;39;32;
42410;PMS5003;28056;51.112;0.984;2023-02-22T11:57:03;35;27;
42410;PMS5003;28056;51.112;0.984;2023-02-22T11:59:40;38;31;
42410;PMS5003;28056;51.112;0.984;2023-02-22T12:02:24;38;34;
42410;PMS5003;28056;51.112;0.984;2023-02-22T12:05:21;43;34;
42410;PMS5003;28056;51.112;0.984;2023-02-22T12:08:00;30;26;
42410;PMS5003;28056;51.112;0.984;2023-02-22T12:10:40;43;36;
42410;PMS5003;28056;51.112;0.984;2023-02-22T12:13:20;32;25;
42410;PMS5003;28056;51.112;0.984;2023-02-22T12:16:00;44;27;
42410;PMS5003;28056;51.112;0.984;2023-02-22T12:18:38;38;34;
42410;PMS5003;28056;51.112;0.984;2023-02-22T12:21:17;38;33;
42410;PMS5003;28056;51.112;0.984;2023-02-22T12:23:49;38;29;
42410;PMS5003;28056;51.112;0.984;2023-02-22T12:26:23;38;31;
42410;PMS5003;28056;51.112;0.984;2023-02-22T12:28:54;37;30;
42410;PMS5003;28056;51.112;0.984;2023-02-22T12:31:28;34;28;
42410;PMS5003;28056;51.112;0.984;2023-02-22T12:34:03;31;28;
42410;PMS5003;28056;51.112;0.984;2023-02-22T12:36:37;30;27;
42410;PMS5003;28056;51.112;0.984;2023-02-22T12:39:23;36;29;
42410;PMS5003;28056;51.112;0.984;2023-02-22T12:41:58;42;28;
42410;PMS5003;28056;51.112;0.984;2023-02-22T12:44:31;32;27;
42410;PMS5003;28056;51.112;0.984;2023-02-22T12:47:00;34;29;
42410;PMS5003;28056;51.112;0.984;2023-02-22T12:49:32;33;28;
42410;PMS5003;28056;51.112;0.984;2023-02-22T12:52:08;28;23;
42410;PMS5003;28056;51.112;0.984;2023-02-22T12:54:42;27;23;
42410;PMS5003;28056;51.112;0.984;2023-02-22T12:57:18;29;27;
42410;PMS5003;28056;51.112;0.984;2023-02-22T12:59:51;22;21;
42410;PMS5003;28056;51.112;0.984;2023-02-22T13:02:25;17;17;
42410;PMS5003;28056;51.112;0.984;2023-02-22T13:04:56;20;16;
42410;PMS5003;28056;51.112;0.984;2023-02-22T13:07:30;23;16;
42410;PMS5003;28056;51.112;0.984;2023-02-22T13:10:13;26;24;
42410;PMS5003;28056;51.112;0.984;2023-02-22T13:12:54;21;21;
42410;PMS5003;28056;51.112;0.984;2023-02-22T13:15:30;21;20;
42410;PMS5003;28056;51.112;0.984;2023-02-22T13:18:04;22;22;
42410;PMS5003;28056;51.112;0.984;2023-02-22T13:20:40;22;18;
42410;PMS5003;28056;51.112;0.984;2023-02-22T13:23:13;25;18;
42410;PMS5003;28056;51.112;0.984;2023-02-22T13:25:49;23;18;
42410;PMS5003;28056;51.112;0.984;2023-02-22T13:28:23;23;20;
42410;PMS5003;28056;51.112;0.984;2023-02-22T13:31:03;27;26;
42410;PMS5003;28056;51.112;0.984;2023-02-22T13:33:45;25;20;
42410;PMS5003;28056;51.112;0.984;2023-02-22T13:36:29;23;18;
42410;PMS5003;28056;51.112;0.984;2023-02-22T13:39:07;26;20;
42410;PMS5003;28056;51.112;0.984;2023-02-22T13:41:53;31;24;
42410;PMS5003;28056;51.112;0.984;2023-02-22T13:44:37;28;22;
42410;PMS5003;28056;51.112;0.984;2023-02-22T13:47:48;19;16;
42410;PMS5003;28056;51.112;0.984;2023-02-22T13:50:36;27;19;
42410;PMS5003;28056;51.112;0.984;2023-02-22T13:53:19;27;26;
42410;PMS5003;28056;51.112;0.984;2023-02-22T13:55:53;22;22;
42410;PMS5003;28056;51.112;0.984;2023-02-22T13:58:24;24;22;
42410;PMS5003;28056;51.112;0.984;2023-02-22T14:00:52;22;20;
42410;PMS5003;28056;51.112;0.984;2023-02-22T14:03:32;28;22;
42410;PMS5003;28056;51.112;0.984;2023-02-22T14:06:03;18;16;
42410;PMS5003;28056;51.112;0.984;2023-02-22T14:08:39;17;16;
42410;PMS5003;28056;51.112;0.984;2023-02-22T14:11:42;21;19;
42410;PMS5003;28056;51.112;0.984;2023-02-22T14:14:13;26;20;
42410;PMS5003;28056;51.112;0.984;2023-02-22T14:16:41;22;17;
42410;PMS5003;28056;51.112;0.984;2023-02-22T14:19:13;21;17;
42410;PMS5003;28056;51.112;0.984;2023-02-22T14:21:54;23;19;
42410;PMS5003;28056;51.112;0.984;2023-02-22T14:24:23;22;19;
42410;PMS5003;28056;51.112;0.984;2023-02-22T14:26:53;21;18;
42410;PMS5003;28056;51.112;0.984;2023-02-22T14:29:24;23;22;
42410;PMS5003;28056;51.112;0.984;2023-02-22T14:31:55;37;28;
42410;PMS5003;28056;51.112;0.984;2023-02-22T14:34:59;22;19;
42410;PMS5003;28056;51.112;0.984;2023-02-22T14:37:31;21;18;
42410;PMS5003;28056;51.112;0.984;2023-02-22T14:40:03;22;21;
42410;PMS5003;28056;51.112;0.984;2023-02-22T14:42:33;21;20;
42410;PMS5003;28056;51.112;0.984;2023-02-22T14:45:04;23;17;
42410;PMS5003;28056;51.112;0.984;2023-02-22T14:47:43;19;18;
42410;PMS5003;28056;51.112;0.984;2023-02-22T14:50:20;23;18;
42410;PMS5003;28056;51.112;0.984;2023-02-22T14:52:55;27;22;
42410;PMS5003;28056;51.112;0.984;2023-02-22T14:55:27;24;21;
42410;PMS5003;28056;51.112;0.984;2023-02-22T14:58:00;30;24;
42410;PMS5003;28056;51.112;0.984;2023-02-22T15:00:37;30;24;
42410;PMS5003;28056;51.112;0.984;2023-02-22T15:03:10;33;29;
42410;PMS5003;28056;51.112;0.984;2023-02-22T15:05:45;31;25;
42410;PMS5003;28056;51.112;0.984;2023-02-22T15:08:13;32;24;
42410;PMS5003;28056;51.112;0.984;2023-02-22T15:10:44;32;26;
42410;PMS5003;28056;51.112;0.984;2023-02-22T15:13:14;29;25;
42410;PMS5003;28056;51.112;0.984;2023-02-22T15:15:44;21;19;
42410;PMS5003;28056;51.112;0.984;2023-02-22T15:18:16;27;21;
42410;PMS5003;28056;51.112;0.984;2023-02-22T15:20:49;26;26;
42410;PMS5003;28056;51.112;0.984;2023-02-22T15:23:18;24;22;
42410;PMS5003;28056;51.112;0.984;2023-02-22T15:25:47;24;20;
42410;PMS5003;28056;51.112;0.984;2023-02-22T15:28:15;23;20;
42410;PMS5003;28056;51.112;0.984;2023-02-22T15:30:44;25;21;
42410;PMS5003;28056;51.112;0.984;2023-02-22T15:33:13;20;18;
42410;PMS5003;28056;51.112;0.984;2023-02-22T15:35:43;24;21;
42410;PMS5003;28056;51.112;0.984;2023-02-22T15:38:19;22;19;
42410;PMS5003;28056;51.112;0.984;2023-02-22T15:40:57;24;22;
42410;PMS5003;28056;51.112;0.984;2023-02-22T15:43:26;33;22;
42410;PMS5003;28056;51.112;0.984;2023-02-22T15:45:55;24;19;
42410;PMS5003;28056;51.112;0.984;2023-02-22T15:48:24;32;27;
42410;PMS5003;28056;51.112;0.984;2023-02-22T15:51:00;29;25;
42410;PMS5003;28056;51.112;0.984;2023-02-22T15:53:34;24;22;
42410;PMS5003;28056;51.112;0.984;2023-02-22T15:56:06;27;24;
42410;PMS5003;28056;51.112;0.984;2023-02-22T15:58:38;28;23;
42410;PMS5003;28056;51.112;0.984;2023-02-22T16:01:06;33;27;
42410;PMS5003;28056;51.112;0.984;2023-02-22T16:03:37;30;24;
42410;PMS5003;28056;51.112;0.984;2023-02-22T16:06:07;22;22;
42410;PMS5003;28056;51.112;0.984;2023-02-22T16:08:40;24;22;
42410;PMS5003;28056;51.112;0.984;2023-02-22T16:11:14;23;22;
42410;PMS5003;28056;51.112;0.984;2023-02-22T16:13:50;26;23;
42410;PMS5003;28056;51.112;0.984;2023-02-22T16:16:21;27;26;
42410;PMS5003;28056;51.112;0.984;2023-02-22T16:18:53;28;25;
42410;PMS5003;28056;51.112;0.984;2023-02-22T16:21:52;29;29;
42410;PMS5003;28056;51.112;0.984;2023-02-22T16:24:28;35;26;
42410;PMS5003;28056;51.112;0.984;2023-02-22T16:27:02;32;30;
42410;PMS5003;28056;51.112;0.984;2023-02-22T16:29:33;32;29;
42410;PMS5003;28056;51.112;0.984;2023-02-22T16:31:59;30;26;
42410;PMS5003;28056;51.112;0.984;2023-02-22T16:34:26;36;30;
42410;PMS5003;28056;51.112;0.984;2023-02-22T16:36:54;32;27;
42410;PMS5003;28056;51.112;0.984;2023-02-22T16:39:22;33;32;
42410;PMS5003;28056;51.112;0.984;2023-02-22T16:41:52;31;29;
42410;PMS5003;28056;51.112;0.984;2023-02-22T16:44:20;29;27;
42410;PMS5003;28056;51.112;0.984;2023-02-22T16:46:48;26;26;
42410;PMS5003;28056;51.112;0.984;2023-02-22T16:49:15;30;27;
42410;PMS5003;28056;51.112;0.984;2023-02-22T16:51:44;37;35;